createdAt,value
2019-05-07T00:01:17.625Z,14.50
2019-05-07T00:03:57.526Z,16.20
2019-05-07T00:07:10.433Z,16.53
2019-05-07T00:10:17.317Z,13.67
2019-05-07T00:13:22.654Z,13.93
2019-05-07T00:16:24.055Z,12.53
2019-05-07T00:19:22.935Z,14.33
2019-05-07T00:22:03.195Z,13.50
2019-05-07T00:24:42.988Z,12.03
2019-05-07T00:27:32.048Z,12.73
2019-05-07T00:30:12.596Z,12.37
2019-05-07T00:32:48.774Z,14.03
2019-05-07T00:35:45.238Z,13.43
2019-05-07T00:38:49.063Z,17.83
2019-05-07T00:41:35.232Z,14.67
2019-05-07T00:44:18.945Z,11.73
2019-05-07T00:46:57.720Z,16.70
2019-05-07T00:49:39.176Z,12.60
2019-05-07T00:52:26.846Z,15.43
2019-05-07T00:55:14.678Z,15.80
2019-05-07T00:57:53.243Z,14.10
2019-05-07T01:00:33.278Z,20.40
2019-05-07T01:03:12.906Z,14.93
2019-05-07T01:05:52.871Z,13.90
2019-05-07T01:08:40.019Z,16.57
2019-05-07T01:11:22.668Z,14.63
2019-05-07T01:14:15.817Z,14.10
2019-05-07T01:16:55.565Z,16.80
2019-05-07T01:19:44.765Z,11.17
2019-05-07T01:22:23.465Z,16.97
2019-05-07T01:28:09.505Z,15.73
2019-05-07T01:31:21.690Z,13.10
2019-05-07T01:34:09.102Z,11.07
2019-05-07T01:36:53.216Z,14.37
2019-05-07T01:42:36.713Z,13.23
2019-05-07T01:45:45.353Z,13.90
2019-05-07T01:48:34.539Z,15.93
2019-05-07T01:51:33.157Z,14.17
2019-05-07T01:54:16.896Z,13.03
2019-05-07T01:57:05.707Z,18.07
2019-05-07T01:59:45.985Z,19.90
2019-05-07T02:02:42.549Z,15.17
2019-05-07T02:05:42.396Z,12.50
2019-05-07T02:08:42.226Z,14.13
2019-05-07T02:11:34.833Z,13.60
2019-05-07T02:14:21.902Z,14.70
2019-05-07T02:17:03.025Z,14.10
2019-05-07T02:19:52.621Z,17.03
2019-05-07T02:22:47.551Z,13.47
2019-05-07T02:28:42.478Z,15.93
2019-05-07T02:31:28.140Z,14.23
2019-05-07T02:34:23.462Z,18.97
2019-05-07T02:37:09.830Z,17.03
2019-05-07T02:40:29.680Z,16.87
2019-05-07T02:43:22.750Z,20.20
2019-05-07T02:46:30.981Z,14.77
2019-05-07T02:49:24.451Z,14.87
2019-05-07T02:52:53.374Z,16.97
2019-05-07T02:55:53.899Z,17.10
2019-05-07T02:58:52.797Z,15.13
2019-05-07T03:01:36.711Z,15.40
2019-05-07T03:04:25.120Z,14.13
2019-05-07T03:07:18.425Z,17.80
2019-05-07T03:10:15.367Z,16.77
2019-05-07T03:13:06.202Z,13.63
2019-05-07T03:15:55.169Z,14.83
2019-05-07T03:18:44.025Z,16.87
2019-05-07T03:21:58.303Z,13.47
2019-05-07T03:24:48.282Z,16.90
2019-05-07T03:27:37.537Z,16.13
2019-05-07T03:30:56.872Z,17.03
2019-05-07T03:34:15.525Z,14.03
2019-05-07T03:37:09.142Z,17.27
2019-05-07T03:40:06.765Z,16.40
2019-05-07T03:42:53.563Z,16.33
2019-05-07T03:45:53.699Z,15.07
2019-05-07T03:48:34.686Z,14.37
2019-05-07T03:51:14.603Z,16.83
2019-05-07T03:53:53.644Z,14.70
2019-05-07T03:56:52.806Z,17.67
2019-05-07T03:59:58.928Z,15.20
2019-05-07T04:02:58.696Z,14.63
2019-05-07T04:05:52.863Z,12.77
2019-05-07T04:08:36.711Z,14.37
2019-05-07T04:11:19.409Z,15.17
2019-05-07T04:14:09.588Z,13.07
2019-05-07T04:17:18.549Z,13.13
2019-05-07T04:20:13.269Z,14.37
2019-05-07T04:23:04.449Z,14.90
2019-05-07T04:26:05.277Z,14.87
2019-05-07T04:29:05.509Z,16.60
2019-05-07T04:31:53.328Z,14.13
2019-05-07T04:34:52.963Z,15.87
2019-05-07T04:38:01.819Z,15.30
2019-05-07T04:40:43.156Z,13.07
2019-05-07T04:43:23.355Z,16.00
2019-05-07T04:46:03.608Z,15.10
2019-05-07T04:48:44.700Z,14.57
2019-05-07T04:51:25.509Z,12.33
2019-05-07T04:54:05.732Z,14.80
2019-05-07T04:57:23.670Z,14.87
2019-05-07T05:00:03.311Z,12.67
2019-05-07T05:02:44.782Z,13.00
2019-05-07T05:05:23.859Z,16.33
2019-05-07T05:08:03.905Z,13.00
2019-05-07T05:10:43.309Z,14.90
2019-05-07T05:13:23.241Z,15.33
2019-05-07T05:16:02.089Z,12.43
2019-05-07T05:18:41.993Z,16.20
2019-05-07T05:21:38.100Z,11.67
2019-05-07T05:24:17.362Z,13.83
2019-05-07T05:26:55.764Z,11.40
2019-05-07T05:29:35.622Z,11.77
2019-05-07T05:32:13.906Z,17.07
2019-05-07T05:34:54.387Z,11.63
2019-05-07T05:37:32.219Z,15.40
2019-05-07T05:40:12.226Z,15.07
2019-05-07T05:42:52.336Z,15.07
2019-05-07T05:45:43.420Z,15.33
2019-05-07T05:48:22.404Z,12.47
2019-05-07T05:51:03.186Z,12.37
2019-05-07T05:53:52.386Z,10.07
2019-05-07T05:56:52.001Z,12.93
2019-05-07T05:59:47.941Z,11.80
2019-05-07T06:02:23.733Z,14.07
2019-05-07T06:05:03.258Z,10.90
2019-05-07T06:07:54.792Z,11.27
2019-05-07T06:10:37.418Z,11.40
2019-05-07T06:13:19.050Z,12.30
2019-05-07T06:16:12.539Z,13.77
2019-05-07T06:19:03.154Z,10.50
2019-05-07T06:22:02.130Z,11.00
2019-05-07T06:24:44.766Z,10.93
2019-05-07T06:27:22.968Z,12.63
2019-05-07T06:30:04.806Z,10.90
2019-05-07T06:32:43.161Z,8.90
2019-05-07T06:35:22.977Z,10.60
2019-05-07T06:38:02.881Z,11.47
2019-05-07T06:40:45.452Z,14.47
2019-05-07T06:43:27.435Z,9.90
2019-05-07T06:46:06.719Z,9.10
2019-05-07T06:48:46.381Z,8.20
2019-05-07T06:51:28.367Z,8.23
2019-05-07T06:54:07.514Z,10.17
2019-05-07T06:56:45.679Z,9.37
2019-05-07T06:59:32.575Z,13.40
2019-05-07T07:02:27.094Z,9.77
2019-05-07T07:05:12.144Z,9.63
2019-05-07T07:07:55.633Z,8.03
2019-05-07T07:10:52.914Z,8.13
2019-05-07T07:13:32.145Z,10.47
2019-05-07T07:16:12.691Z,8.33
2019-05-07T07:18:55.339Z,8.40
2019-05-07T07:21:32.746Z,7.17
2019-05-07T07:24:12.724Z,10.37
2019-05-07T07:26:52.788Z,9.30
2019-05-07T07:29:33.590Z,8.90
2019-05-07T07:32:14.334Z,8.13
2019-05-07T07:34:55.878Z,7.70
2019-05-07T07:37:35.538Z,12.07
2019-05-07T07:40:34.073Z,6.73
2019-05-07T07:43:14.224Z,7.23
2019-05-07T07:45:53.262Z,9.90
2019-05-07T07:48:32.182Z,9.93
2019-05-07T07:51:13.588Z,8.53
2019-05-07T07:53:52.005Z,8.53
2019-05-07T07:56:52.645Z,9.27
2019-05-07T07:59:42.508Z,8.40
2019-05-07T08:02:22.959Z,9.70
2019-05-07T08:05:02.122Z,11.00
2019-05-07T08:07:39.318Z,9.40
2019-05-07T08:10:16.498Z,10.10
2019-05-07T08:12:53.626Z,8.27
2019-05-07T08:15:32.813Z,8.43
2019-05-07T08:18:11.823Z,9.47
2019-05-07T08:20:48.283Z,11.73
2019-05-07T08:23:25.446Z,9.80
2019-05-07T08:26:02.691Z,8.23
2019-05-07T08:28:41.820Z,8.93
2019-05-07T08:31:27.191Z,10.60
2019-05-07T08:34:22.780Z,10.93
2019-05-07T08:37:01.872Z,9.53
2019-05-07T08:39:39.189Z,21.53
2019-05-07T08:42:16.358Z,10.80
2019-05-07T08:44:55.085Z,13.27
2019-05-07T08:47:42.548Z,10.40
2019-05-07T08:50:19.795Z,11.20
2019-05-07T08:52:56.970Z,17.13
2019-05-07T08:55:34.064Z,10.97
2019-05-07T08:58:12.025Z,12.17
2019-05-07T09:00:49.215Z,11.67
2019-05-07T09:03:44.580Z,12.07
2019-05-07T09:06:23.340Z,8.97
2019-05-07T09:09:13.337Z,11.97
2019-05-07T09:11:51.900Z,13.20
2019-05-07T09:14:29.167Z,14.27
2019-05-07T09:17:06.264Z,11.10
2019-05-07T09:19:51.225Z,13.00
2019-05-07T09:22:24.563Z,13.43
2019-05-07T09:25:03.081Z,11.40
2019-05-07T09:27:44.759Z,17.00
2019-05-07T09:30:28.374Z,18.37
2019-05-07T09:33:06.813Z,10.50
2019-05-07T09:35:48.424Z,11.37
2019-05-07T09:38:32.791Z,12.87
2019-05-07T09:41:12.033Z,12.37
2019-05-07T09:43:49.311Z,11.57
2019-05-07T09:46:26.394Z,11.03
2019-05-07T09:49:04.227Z,15.93
2019-05-07T09:51:42.670Z,14.70
2019-05-07T09:54:23.112Z,9.63
2019-05-07T09:57:24.571Z,14.20
2019-05-07T09:59:47.996Z,9.17
2019-05-07T10:02:25.178Z,9.30
2019-05-07T10:05:02.645Z,8.93
2019-05-07T10:07:39.761Z,7.13
2019-05-07T10:10:16.907Z,8.50
2019-05-07T10:13:04.524Z,10.83
2019-05-07T10:15:41.875Z,9.20
2019-05-07T10:18:19.482Z,9.43
2019-05-07T10:20:56.637Z,9.20
2019-05-07T10:23:33.795Z,9.87
2019-05-07T10:26:12.566Z,8.87
2019-05-07T10:28:49.713Z,10.03
2019-05-07T10:31:26.889Z,9.97
2019-05-07T10:34:04.031Z,12.00
2019-05-07T10:36:42.182Z,13.77
2019-05-07T10:39:19.361Z,12.37
2019-05-07T10:41:57.847Z,11.60
2019-05-07T10:44:36.667Z,9.53
2019-05-07T10:47:27.675Z,9.30
2019-05-07T10:50:35.597Z,10.10
2019-05-07T10:53:02.188Z,13.47
2019-05-07T10:55:39.402Z,8.17
2019-05-07T10:58:16.605Z,8.73
2019-05-07T11:00:54.952Z,10.67
2019-05-07T11:03:32.532Z,9.90
2019-05-07T11:06:11.845Z,8.17
2019-05-07T11:08:48.550Z,10.43
2019-05-07T11:11:25.651Z,8.27
2019-05-07T11:14:02.807Z,9.80
2019-05-07T11:16:43.054Z,13.20
2019-05-07T11:19:21.998Z,8.40
2019-05-07T11:21:59.225Z,10.87
2019-05-07T11:24:36.412Z,21.30
2019-05-07T11:27:13.578Z,10.80
2019-05-07T11:29:50.735Z,12.20
2019-05-07T11:32:27.901Z,11.23
2019-05-07T11:35:07.957Z,9.27
2019-05-07T11:37:45.122Z,10.33
2019-05-07T11:40:22.913Z,11.77
2019-05-07T11:43:02.500Z,13.43
2019-05-07T11:45:59.101Z,12.07
2019-05-07T11:48:38.112Z,10.23
2019-05-07T11:51:35.451Z,10.53
2019-05-07T11:54:13.627Z,10.10
2019-05-07T11:56:51.971Z,13.80
2019-05-07T11:59:29.547Z,11.90
2019-05-07T12:02:06.863Z,12.60
2019-05-07T12:04:44.020Z,18.20
2019-05-07T12:07:22.347Z,17.77
2019-05-07T12:10:02.833Z,16.83
2019-05-07T12:12:40.058Z,17.03
2019-05-07T12:15:18.966Z,19.23
2019-05-07T12:17:56.157Z,15.93
2019-05-07T12:20:33.341Z,12.50
2019-05-07T12:23:12.136Z,14.20
2019-05-07T12:25:49.433Z,13.57
2019-05-07T12:28:26.558Z,12.90
2019-05-07T12:31:05.316Z,13.53
2019-05-07T12:33:52.105Z,11.63
2019-05-07T12:36:28.885Z,11.93
2019-05-07T12:39:08.184Z,9.27
2019-05-07T12:41:45.346Z,10.83
2019-05-07T12:44:22.510Z,12.33
2019-05-07T12:47:01.603Z,11.57
2019-05-07T12:49:38.448Z,13.63
2019-05-07T12:52:17.205Z,14.77
2019-05-07T12:54:56.027Z,13.23
2019-05-07T12:57:33.667Z,11.80
2019-05-07T13:00:29.268Z,13.83
2019-05-07T13:03:24.383Z,11.97
2019-05-07T13:06:02.522Z,15.47
2019-05-07T13:08:42.978Z,13.23
2019-05-07T13:11:22.127Z,13.13
2019-05-07T13:13:59.295Z,11.90
2019-05-07T13:16:37.324Z,13.43
2019-05-07T13:19:14.978Z,14.03
2019-05-07T13:21:52.493Z,12.70
2019-05-07T13:24:31.580Z,12.20
2019-05-07T13:27:08.611Z,11.17
2019-05-07T13:29:46.941Z,13.00
2019-05-07T13:32:24.140Z,11.83
2019-05-07T13:35:02.687Z,12.87
2019-05-07T13:37:57.978Z,13.30
2019-05-07T13:40:37.217Z,14.40
2019-05-07T13:43:23.064Z,14.97
2019-05-07T13:46:02.606Z,13.83
2019-05-07T13:48:45.658Z,10.97
2019-05-07T13:51:33.615Z,11.03
2019-05-07T13:54:16.090Z,10.77
2019-05-07T13:56:54.161Z,11.33
2019-05-07T13:59:32.501Z,11.80
2019-05-07T14:02:15.341Z,11.77
2019-05-07T14:04:52.660Z,13.53
2019-05-07T14:07:37.702Z,12.27
2019-05-07T14:10:17.038Z,15.60
2019-05-07T14:13:08.547Z,14.03
2019-05-07T14:15:42.601Z,12.43
2019-05-07T14:18:25.574Z,12.10
2019-05-07T14:21:13.046Z,11.33
2019-05-07T14:23:56.446Z,14.17
2019-05-07T14:26:33.749Z,13.77
2019-05-07T14:32:23.019Z,9.17
2019-05-07T14:35:08.887Z,12.43
2019-05-07T14:37:53.743Z,11.97
2019-05-07T14:40:42.966Z,10.47
2019-05-07T14:43:23.463Z,11.17
2019-05-07T14:46:02.595Z,10.07
2019-05-07T14:48:44.361Z,9.70
2019-05-07T14:51:23.777Z,11.13
2019-05-07T14:54:01.836Z,14.50
2019-05-07T14:56:42.861Z,12.67
2019-05-07T14:59:25.274Z,14.83
2019-05-07T15:02:07.847Z,11.83
2019-05-07T15:04:52.451Z,13.47
2019-05-07T15:07:35.044Z,11.23
2019-05-07T15:10:13.971Z,12.63
2019-05-07T15:12:57.450Z,10.20
2019-05-07T15:15:46.783Z,9.80
2019-05-07T15:18:28.475Z,11.30
2019-05-07T15:21:07.229Z,16.63
2019-05-07T15:23:47.864Z,15.17
2019-05-07T15:26:28.301Z,16.40
2019-05-07T15:29:15.423Z,16.13
2019-05-07T15:32:03.362Z,15.33
2019-05-07T15:34:43.991Z,15.87
2019-05-07T15:37:42.736Z,17.50
2019-05-07T15:40:28.367Z,15.23
2019-05-07T15:43:09.933Z,17.13
2019-05-07T15:45:52.296Z,16.47
2019-05-07T15:48:29.455Z,20.97
2019-05-07T15:51:17.055Z,14.77
2019-05-07T15:53:58.640Z,16.40
2019-05-07T15:56:36.159Z,16.67
2019-05-07T15:59:31.428Z,15.87
2019-05-07T16:02:14.433Z,14.77
2019-05-07T16:04:54.723Z,14.57
2019-05-07T16:07:35.846Z,14.77
2019-05-07T16:10:18.446Z,14.30
2019-05-07T16:13:05.081Z,14.83
2019-05-07T16:15:44.515Z,13.20
2019-05-07T16:18:29.340Z,15.10
2019-05-07T16:21:06.522Z,12.87
2019-05-07T16:23:43.680Z,12.97
2019-05-07T16:26:21.994Z,14.73
2019-05-07T16:28:59.249Z,13.07
2019-05-07T16:31:36.898Z,11.80
2019-05-07T16:34:14.047Z,12.60
2019-05-07T16:36:51.231Z,11.63
2019-05-07T16:39:28.403Z,12.43
2019-05-07T16:42:05.634Z,11.43
2019-05-07T16:44:42.738Z,12.00
2019-05-07T16:47:19.918Z,11.80
2019-05-07T16:49:57.066Z,11.87
2019-05-07T16:52:35.264Z,11.20
2019-05-07T16:55:12.505Z,11.80
2019-05-07T16:58:05.777Z,9.70
2019-05-07T17:00:47.692Z,11.33
2019-05-07T17:03:26.429Z,12.20
2019-05-07T17:06:03.612Z,11.17
2019-05-07T17:08:42.441Z,11.90
2019-05-07T17:11:19.775Z,12.27
2019-05-07T17:13:56.915Z,13.00
2019-05-07T17:16:34.123Z,13.40
2019-05-07T17:19:12.871Z,12.00
2019-05-07T17:21:52.026Z,13.97
2019-05-07T17:24:38.731Z,14.83
2019-05-07T17:27:16.047Z,14.07
2019-05-07T17:29:53.167Z,13.97
2019-05-07T17:32:32.126Z,14.07
2019-05-07T17:35:09.508Z,11.70
2019-05-07T17:37:46.642Z,13.83
2019-05-07T17:40:23.837Z,15.43
2019-05-07T17:43:03.000Z,19.80
2019-05-07T17:45:39.747Z,16.07
2019-05-07T17:48:16.911Z,19.33
2019-05-07T17:51:07.738Z,20.43
2019-05-07T17:53:56.709Z,15.47
2019-05-07T17:56:28.090Z,15.17
2019-05-07T17:59:05.311Z,18.07
2019-05-07T18:01:53.169Z,28.83
2019-05-07T18:04:33.764Z,21.50
2019-05-07T18:07:11.992Z,19.47
2019-05-07T18:13:00.063Z,16.43
2019-05-07T18:15:42.625Z,17.10
2019-05-07T18:18:24.609Z,19.10
2019-05-07T18:21:04.978Z,17.00
2019-05-07T18:23:42.614Z,18.70
2019-05-07T18:26:29.617Z,20.57
2019-05-07T18:28:58.802Z,24.43
2019-05-07T18:31:52.277Z,55.60
2019-05-07T18:34:32.005Z,53.57
2019-05-07T18:37:09.879Z,72.33
2019-05-07T18:39:52.197Z,127.67
2019-05-07T18:42:41.745Z,75.30
2019-05-07T18:45:24.574Z,30.70
2019-05-07T18:48:06.663Z,76.70
2019-05-07T18:50:59.787Z,64.70
2019-05-07T18:53:38.222Z,83.90
2019-05-07T18:56:29.136Z,69.80
2019-05-07T18:59:08.118Z,54.40
2019-05-07T19:01:46.319Z,47.10
2019-05-07T19:04:36.148Z,36.53
2019-05-07T19:07:16.983Z,32.97
2019-05-07T19:09:57.014Z,33.53
2019-05-07T19:12:39.349Z,28.50
2019-05-07T19:15:22.007Z,32.10
2019-05-07T19:18:02.704Z,29.63
2019-05-07T19:20:44.463Z,33.80
2019-05-07T19:23:28.289Z,34.37
2019-05-07T19:26:07.508Z,37.17
2019-05-07T19:28:47.917Z,37.87
2019-05-07T19:31:28.355Z,31.23
2019-05-07T19:34:12.453Z,32.97
2019-05-07T19:37:12.497Z,33.70
2019-05-07T19:39:54.296Z,39.53
2019-05-07T19:42:33.403Z,35.33
2019-05-07T19:45:12.783Z,37.93
2019-05-07T19:47:52.373Z,37.23
2019-05-07T19:50:35.239Z,41.07
2019-05-07T19:53:12.921Z,46.37
2019-05-07T19:56:04.867Z,46.47
2019-05-07T19:58:52.874Z,47.63
2019-05-07T20:01:33.655Z,42.53
2019-05-07T20:04:13.292Z,47.33
2019-05-07T20:06:55.159Z,56.43
2019-05-07T20:09:40.184Z,49.47
2019-05-07T20:12:20.909Z,52.40
2019-05-07T20:14:59.197Z,51.83
2019-05-07T20:17:43.026Z,46.67
2019-05-07T20:20:29.819Z,45.60
2019-05-07T20:23:07.827Z,50.03
2019-05-07T20:25:49.450Z,47.00
2019-05-07T20:28:27.051Z,50.83
2019-05-07T20:31:06.999Z,50.93
2019-05-07T20:33:46.821Z,53.50
2019-05-07T20:36:34.269Z,54.40
2019-05-07T20:39:14.951Z,49.03
2019-05-07T20:42:03.153Z,50.43
2019-05-07T20:44:42.570Z,59.70
2019-05-07T20:47:28.537Z,55.17
2019-05-07T20:50:08.203Z,48.30
2019-05-07T20:52:53.170Z,50.63
2019-05-07T20:55:45.865Z,48.70
2019-05-07T20:58:26.025Z,49.43
2019-05-07T21:01:22.123Z,49.63
2019-05-07T21:04:22.238Z,50.20
2019-05-07T21:07:11.805Z,45.37
2019-05-07T21:09:54.306Z,45.50
2019-05-07T21:12:38.581Z,48.73
2019-05-07T21:15:42.788Z,49.30
2019-05-07T21:18:46.195Z,49.63
2019-05-07T21:21:37.572Z,47.83
2019-05-07T21:24:32.879Z,47.87
2019-05-07T21:27:16.164Z,47.03
2019-05-07T21:30:24.024Z,45.07
2019-05-07T21:33:07.051Z,46.03
2019-05-07T21:35:48.358Z,48.57
2019-05-07T21:38:38.327Z,44.23
2019-05-07T21:41:22.689Z,48.53
2019-05-07T21:44:03.248Z,51.03
2019-05-07T21:46:44.061Z,48.03
2019-05-07T21:49:35.657Z,49.90
2019-05-07T21:52:25.887Z,43.70
2019-05-07T21:55:12.823Z,43.60
2019-05-07T21:58:09.309Z,41.87
2019-05-07T22:00:57.939Z,47.50
2019-05-07T22:03:52.383Z,41.90
2019-05-07T22:06:32.848Z,42.90
2019-05-07T22:09:19.485Z,45.80
2019-05-07T22:12:22.482Z,49.63
2019-05-07T22:15:05.661Z,47.10
2019-05-07T22:17:45.436Z,54.83
2019-05-07T22:20:32.905Z,53.80
2019-05-07T22:23:17.547Z,47.17
2019-05-07T22:26:20.183Z,51.63
2019-05-07T22:29:07.844Z,53.07
2019-05-07T22:32:31.072Z,45.33
2019-05-07T22:35:24.478Z,47.83
2019-05-07T22:38:22.790Z,49.37
2019-05-07T22:41:15.202Z,50.33
2019-05-07T22:44:06.711Z,47.63
2019-05-07T22:46:52.827Z,46.80
2019-05-07T22:49:41.976Z,51.83
2019-05-07T22:52:24.641Z,49.27
2019-05-07T22:55:13.960Z,55.40
2019-05-07T22:58:03.342Z,54.67
2019-05-07T23:01:02.547Z,57.87
2019-05-07T23:03:54.880Z,51.30
2019-05-07T23:07:02.443Z,47.40
2019-05-07T23:09:41.935Z,51.03
2019-05-07T23:12:32.614Z,50.13
2019-05-07T23:15:22.464Z,56.33
2019-05-07T23:18:14.071Z,49.37
2019-05-07T23:21:05.102Z,55.00
2019-05-07T23:23:59.146Z,53.33
2019-05-07T23:26:48.101Z,55.67
2019-05-07T23:29:22.495Z,55.30
2019-05-07T23:32:18.585Z,55.90
2019-05-07T23:35:06.483Z,54.20
2019-05-07T23:38:07.275Z,47.27
2019-05-07T23:44:12.686Z,59.00
2019-05-07T23:47:02.601Z,56.57
2019-05-07T23:50:02.065Z,58.07
2019-05-07T23:52:49.036Z,54.70
2019-05-07T23:55:56.443Z,58.53
2019-05-07T23:58:56.267Z,55.07
